createdAt,value
2018-12-12T00:01:04.913Z,3.07
2018-12-12T00:06:08.991Z,3.10
2018-12-12T00:11:11.341Z,3.11
2018-12-12T00:16:14.009Z,3.09
2018-12-12T00:21:16.069Z,3.04
2018-12-12T00:26:19.255Z,3.05
2018-12-12T00:31:21.450Z,3.02
2018-12-12T00:36:23.694Z,3.03
2018-12-12T00:41:25.753Z,2.99
2018-12-12T00:46:27.805Z,3.04
2018-12-12T00:51:30.326Z,3.02
2018-12-12T00:56:32.403Z,2.98
2018-12-12T01:01:34.562Z,2.97
2018-12-12T01:06:36.605Z,3.00
2018-12-12T01:11:46.005Z,2.93
2018-12-12T01:16:48.057Z,2.83
2018-12-12T01:21:50.637Z,2.79
2018-12-12T01:26:52.931Z,2.85
2018-12-12T01:31:55.110Z,2.87
2018-12-12T01:36:57.366Z,2.80
2018-12-12T01:42:00.381Z,2.77
2018-12-12T01:47:02.660Z,2.78
2018-12-12T01:52:04.845Z,2.82
2018-12-12T01:57:06.910Z,2.83
2018-12-12T02:02:09.069Z,2.89
2018-12-12T02:07:11.438Z,2.87
2018-12-12T02:12:13.754Z,2.87
2018-12-12T02:17:15.917Z,2.86
2018-12-12T02:22:18.145Z,2.83
2018-12-12T02:27:21.145Z,2.78
2018-12-12T02:32:23.293Z,2.71
2018-12-12T02:37:25.848Z,2.75
2018-12-12T02:42:28.157Z,2.76
2018-12-12T02:47:30.403Z,2.79
2018-12-12T02:52:32.588Z,2.74
2018-12-12T02:57:41.602Z,2.71
2018-12-12T03:02:43.911Z,2.74
2018-12-12T03:07:46.168Z,2.66
2018-12-12T03:12:48.253Z,2.43
2018-12-12T03:17:50.333Z,2.23
2018-12-12T03:22:52.406Z,2.37
2018-12-12T03:27:54.463Z,2.34
2018-12-12T03:32:57.003Z,2.30
2018-12-12T03:37:59.061Z,2.23
2018-12-12T03:43:01.247Z,2.30
2018-12-12T03:48:03.704Z,2.30
2018-12-12T03:53:06.008Z,2.35
2018-12-12T03:58:08.050Z,2.39
2018-12-12T04:03:10.102Z,2.46
2018-12-12T04:08:12.313Z,2.43
2018-12-12T04:13:14.593Z,2.48
2018-12-12T04:18:16.937Z,2.49
2018-12-12T04:23:22.047Z,2.52
2018-12-12T04:28:24.126Z,2.54
2018-12-12T04:33:26.317Z,2.58
2018-12-12T04:38:28.652Z,2.58
2018-12-12T04:43:30.702Z,2.53
2018-12-12T04:48:37.813Z,2.33
2018-12-12T04:53:39.879Z,2.25
2018-12-12T04:58:42.049Z,2.03
2018-12-12T05:03:44.331Z,1.81
2018-12-12T05:08:46.454Z,1.83
2018-12-12T05:13:49.644Z,1.98
2018-12-12T05:18:51.712Z,2.21
2018-12-12T05:23:53.975Z,2.26
2018-12-12T05:28:56.267Z,2.28
2018-12-12T05:33:58.433Z,2.27
2018-12-12T05:39:07.405Z,2.31
2018-12-12T05:44:10.682Z,2.05
2018-12-12T05:49:12.874Z,2.06
2018-12-12T05:54:15.069Z,2.01
2018-12-12T05:59:17.257Z,2.09
2018-12-12T06:04:19.360Z,2.31
2018-12-12T06:09:21.737Z,2.21
2018-12-12T06:14:23.845Z,2.20
2018-12-12T06:19:26.006Z,2.21
2018-12-12T06:24:29.174Z,2.49
2018-12-12T06:29:31.362Z,2.51
2018-12-12T06:34:33.514Z,2.58
2018-12-12T06:39:35.755Z,2.57
2018-12-12T06:44:37.814Z,2.51
2018-12-12T06:49:39.981Z,2.37
2018-12-12T06:54:42.197Z,2.43
2018-12-12T06:59:44.293Z,2.28
2018-12-12T07:04:46.581Z,2.59
2018-12-12T07:09:49.382Z,2.54
2018-12-12T07:14:51.466Z,2.51
2018-12-12T07:19:53.673Z,2.57
2018-12-12T07:24:55.849Z,2.50
2018-12-12T07:29:57.889Z,2.53
2018-12-12T07:34:59.937Z,2.58
2018-12-12T07:40:02.210Z,2.56
2018-12-12T07:45:04.480Z,2.61
2018-12-12T07:50:08.869Z,2.43
2018-12-12T07:55:27.881Z,2.48
2018-12-12T08:00:30.901Z,2.48
2018-12-12T08:05:32.944Z,2.51
2018-12-12T08:10:35.145Z,2.49
2018-12-12T08:15:37.201Z,2.50
2018-12-12T08:20:39.237Z,2.51
2018-12-12T08:25:42.430Z,2.57
2018-12-12T08:30:44.593Z,2.59
2018-12-12T08:35:46.854Z,2.65
2018-12-12T08:40:48.930Z,2.66
2018-12-12T08:45:51.277Z,2.61
2018-12-12T08:50:53.931Z,2.72
2018-12-12T08:55:56.370Z,2.66
2018-12-12T09:00:58.429Z,2.83
2018-12-12T09:06:00.521Z,2.82
2018-12-12T09:11:02.857Z,2.83
2018-12-12T09:16:05.153Z,3.00
2018-12-12T09:21:07.309Z,3.07
2018-12-12T09:26:09.407Z,2.94
2018-12-12T09:31:11.732Z,2.85
2018-12-12T09:36:15.789Z,2.91
2018-12-12T09:41:17.957Z,2.86
2018-12-12T09:46:20.134Z,2.92
2018-12-12T09:51:22.289Z,2.93
2018-12-12T09:56:26.530Z,3.11
2018-12-12T10:01:28.710Z,3.09
2018-12-12T10:06:30.880Z,3.13
2018-12-12T10:11:33.050Z,2.97
2018-12-12T10:16:35.266Z,2.89
2018-12-12T10:21:37.422Z,2.97
2018-12-12T10:26:39.741Z,2.87
2018-12-12T10:31:42.026Z,2.72
2018-12-12T10:36:44.114Z,2.71
2018-12-12T10:41:46.593Z,2.79
2018-12-12T10:46:48.653Z,2.96
2018-12-12T10:51:50.939Z,2.96
2018-12-12T10:56:53.032Z,2.98
2018-12-12T11:02:00.981Z,3.08
2018-12-12T11:07:03.314Z,3.15
2018-12-12T11:12:05.633Z,3.11
2018-12-12T11:17:07.785Z,3.14
2018-12-12T11:22:09.881Z,3.26
2018-12-12T11:27:11.969Z,3.22
2018-12-12T11:32:14.017Z,3.19
2018-12-12T11:37:16.289Z,3.15
2018-12-12T11:42:18.614Z,3.21
2018-12-12T11:47:20.665Z,3.37
2018-12-12T11:52:22.717Z,3.43
2018-12-12T11:57:25.224Z,3.51
2018-12-12T12:02:27.453Z,3.51
2018-12-12T12:07:29.884Z,3.51
2018-12-12T12:12:32.013Z,3.32
2018-12-12T12:17:34.163Z,3.44
2018-12-12T12:22:36.222Z,3.43
2018-12-12T12:27:38.302Z,3.54
2018-12-12T12:32:47.457Z,3.59
2018-12-12T12:37:49.617Z,3.46
2018-12-12T12:42:51.785Z,3.40
2018-12-12T12:47:53.977Z,3.27
2018-12-12T12:52:56.026Z,3.27
2018-12-12T12:57:58.073Z,3.17
2018-12-12T13:03:00.271Z,3.21
2018-12-12T13:08:03.153Z,3.25
2018-12-12T13:13:05.638Z,3.31
2018-12-12T13:18:08.341Z,3.38
2018-12-12T13:23:10.501Z,3.60
2018-12-12T13:28:12.885Z,3.41
2018-12-12T13:33:15.181Z,3.41
2018-12-12T13:38:17.229Z,3.30
2018-12-12T13:43:26.213Z,3.37
2018-12-12T13:48:28.286Z,3.21
2018-12-12T13:53:30.558Z,3.24
2018-12-12T13:58:32.654Z,3.20
2018-12-12T14:03:34.740Z,3.18
2018-12-12T14:08:36.973Z,3.14
2018-12-12T14:13:39.211Z,3.08
2018-12-12T14:18:41.270Z,3.09
2018-12-12T14:23:43.385Z,3.16
2018-12-12T14:28:45.424Z,3.18
2018-12-12T14:33:55.701Z,3.11
2018-12-12T14:38:57.784Z,3.04
2018-12-12T14:43:59.826Z,3.03
2018-12-12T14:49:08.969Z,3.02
2018-12-12T14:54:11.141Z,3.06
2018-12-12T14:59:13.968Z,2.96
2018-12-12T15:04:16.199Z,2.90
2018-12-12T15:09:18.281Z,2.85
2018-12-12T15:14:20.397Z,2.73
2018-12-12T15:19:22.450Z,2.56
2018-12-12T15:24:24.553Z,2.39
2018-12-12T15:29:27.542Z,2.29
2018-12-12T15:34:29.711Z,2.05
2018-12-12T15:39:31.954Z,1.93
2018-12-12T15:44:33.997Z,1.77
2018-12-12T15:49:36.095Z,1.67
2018-12-12T15:54:38.367Z,1.68
2018-12-12T15:59:40.478Z,1.82
2018-12-12T16:04:48.815Z,1.98
2018-12-12T16:09:46.738Z,2.11
2018-12-12T16:14:48.833Z,2.04
2018-12-12T16:19:50.882Z,2.09
2018-12-12T16:24:52.937Z,2.06
2018-12-12T16:29:55.034Z,1.96
2018-12-12T16:34:57.122Z,1.56
2018-12-12T16:39:59.297Z,1.20
2018-12-12T16:45:01.460Z,0.84
2018-12-12T16:50:10.570Z,0.98
2018-12-12T16:55:12.888Z,0.90
2018-12-12T17:00:16.306Z,0.93
2018-12-12T17:05:18.595Z,1.07
2018-12-12T17:10:20.903Z,0.98
2018-12-12T17:15:23.078Z,0.91
2018-12-12T17:20:25.345Z,1.12
2018-12-12T17:25:27.421Z,1.21
2018-12-12T17:30:30.102Z,1.28
2018-12-12T17:35:32.193Z,1.22
2018-12-12T17:40:34.261Z,1.32
2018-12-12T17:45:36.641Z,1.36
2018-12-12T17:50:38.841Z,1.48
2018-12-12T17:55:40.886Z,1.52
2018-12-12T18:00:43.061Z,1.58
2018-12-12T18:05:47.280Z,1.60
2018-12-12T18:10:49.459Z,1.71
2018-12-12T18:15:51.503Z,1.79
2018-12-12T18:20:59.406Z,1.79
2018-12-12T18:26:03.678Z,1.69
2018-12-12T18:31:16.165Z,1.85
2018-12-12T18:36:41.287Z,1.83
2018-12-12T18:41:43.809Z,1.90
2018-12-12T18:47:06.830Z,1.86
2018-12-12T18:52:08.888Z,1.83
2018-12-12T18:57:11.069Z,1.88
2018-12-12T19:02:13.428Z,1.72
2018-12-12T19:07:16.786Z,1.58
2018-12-12T19:12:20.293Z,1.38
2018-12-12T19:17:22.449Z,1.01
2018-12-12T19:22:24.617Z,0.81
2018-12-12T19:27:27.206Z,0.83
2018-12-12T19:32:29.261Z,0.98
2018-12-12T19:37:32.236Z,0.84
2018-12-12T19:42:34.658Z,0.76
2018-12-12T19:47:36.814Z,0.68
2018-12-12T19:52:38.968Z,0.56
2018-12-12T19:57:41.249Z,0.53
2018-12-12T20:02:43.406Z,0.44
2018-12-12T20:07:45.709Z,0.45
2018-12-12T20:12:47.905Z,0.23
2018-12-12T20:17:50.064Z,0.18
2018-12-12T20:22:52.485Z,0.29
2018-12-12T20:27:54.628Z,0.41
2018-12-12T20:32:56.673Z,0.50
2018-12-12T20:37:58.934Z,0.54
2018-12-12T20:43:01.122Z,0.62
2018-12-12T20:48:04.357Z,0.76
2018-12-12T20:53:06.560Z,0.85
2018-12-12T20:58:08.625Z,0.81
2018-12-12T21:03:10.669Z,0.81
2018-12-12T21:08:13.189Z,0.79
2018-12-12T21:13:15.250Z,0.81
2018-12-12T21:18:18.600Z,0.74
2018-12-12T21:23:21.853Z,0.57
2018-12-12T21:28:23.945Z,0.57
2018-12-12T21:33:26.105Z,0.51
2018-12-12T21:38:28.237Z,0.54
2018-12-12T21:43:30.277Z,0.49
2018-12-12T21:48:32.326Z,0.53
2018-12-12T21:53:34.384Z,0.46
2018-12-12T21:58:36.548Z,0.52
2018-12-12T22:03:38.697Z,0.54
2018-12-12T22:08:41.037Z,0.32
2018-12-12T22:13:43.225Z,0.31
2018-12-12T22:18:45.382Z,0.33
2018-12-12T22:23:47.409Z,0.39
2018-12-12T22:28:50.016Z,0.43
2018-12-12T22:33:52.174Z,0.43
2018-12-12T22:38:54.369Z,0.45
2018-12-12T22:43:56.554Z,0.46
2018-12-12T22:48:58.620Z,0.46
2018-12-12T22:54:00.666Z,0.49
2018-12-12T22:59:02.909Z,0.51
2018-12-12T23:04:05.195Z,0.45
2018-12-12T23:09:08.181Z,0.42
2018-12-12T23:14:10.282Z,0.41
2018-12-12T23:19:12.466Z,0.41
2018-12-12T23:24:14.525Z,0.34
2018-12-12T23:29:16.608Z,0.35
2018-12-12T23:34:18.661Z,0.36
2018-12-12T23:39:20.721Z,0.34
2018-12-12T23:44:22.961Z,0.28
2018-12-12T23:49:25.217Z,0.35
2018-12-12T23:54:27.253Z,0.33
2018-12-12T23:59:29.453Z,0.29
